Tropical Cyclones
[Index]
Main Index Home Page Stock Weather Photos Extreme Storms Discussion Storm News and Storm Chasing Reports Tropical Cyclones / Hurricanes / Typhoons Weather Data and Links Wild Fires / Bushfires Weather Observation Techniques Weather Picture Catalogue Tornado Pictures and Reports Stock Video Footage and DVDs for sale
Season 2010-2011 Tropical Cyclone CARLOS Track Map
Season 2010-2011 Summaries: [BoM-AU] [JTWC-AU] [JTWC-SIO] [JTWC-SPAC] [JTWC-SH]
<<- Previous TC | JTWC 2010-2011 Season | Next TC ->>

click for intensity scale information  Lat/long Grid: Show Hide

 Date Labels: Show Hide

Joint Typhoon Warning Centre Cyclone Data

Name: CARLOS

14 Feb 2011 06:00 UTC to 26 Feb 2011 18:00 UTC

    date/time    lat    long     hPa   cat  kts
2011-02-14 06   12.8   131.2    1010         15          
2011-02-14 12   12.8   131.0    1010         15          
2011-02-14 18   12.9   130.9    1007         20          
2011-02-15 00   12.8   130.8    1004         25          
2011-02-15 06   12.9   130.7    1000         30          
2011-02-15 12   12.7   130.6    1000         30          
2011-02-15 18   12.5   130.7     996         35          
2011-02-16 00   12.4   130.9     996         35          
2011-02-16 06   12.5   131.0     996         35          
2011-02-16 12   12.6   131.2     993    1    40          
2011-02-16 18   12.9   131.3     996         35          
2011-02-17 00   13.3   131.1     996         35          
2011-02-17 06   13.6   130.9     996         35          
2011-02-17 12   13.8   130.7    1000         30          
2011-02-17 18   14.0   130.6    1000         30          
2011-02-18 00   14.3   130.5    1000         30          
2011-02-18 06   14.6   130.4    1000         30          
2011-02-18 12   15.0   130.3    1000         30          
2011-02-18 18   15.5   130.1    1001         25          
2011-02-19 00   15.6   129.2    1004         25          
2011-02-19 06   15.3   128.5    1004         25          
2011-02-19 12   15.4   127.9    1004         25          
2011-02-19 18   15.6   127.3    1000         30          
2011-02-20 00   15.9   126.7    1000         30          
2011-02-20 06   16.2   125.4    1000         30          
2011-02-20 12   16.7   123.8    1000         30          
2011-02-20 18   17.3   122.4     996         35          
2011-02-21 00   17.8   121.6     996         35          
2011-02-21 06   18.3   120.4     993    1    40          
2011-02-21 12   19.0   119.2     989    1    45          
2011-02-21 18   19.7   118.2     985    1    50          
2011-02-22 00   20.2   117.3     982    2    55          
2011-02-22 00   20.2   117.3     982    2    55          
2011-02-22 06   20.8   116.4     982    2    55          
2011-02-22 06   20.8   116.4     982    2    55          
2011-02-22 12   21.3   115.6     982    2    55          
2011-02-22 12   21.3   115.6     982    2    55          
2011-02-22 18   21.7   114.8     978    2    60          
2011-02-22 18   21.7   114.8     978    2    60          
2011-02-23 00   22.1   114.1     978    2    60          
2011-02-23 00   22.1   114.1     978    2    60          
2011-02-23 06   22.6   113.4     978    2    60          
2011-02-23 06   22.6   113.4     978    2    60          
2011-02-23 12   23.0   112.7     974    2    65          
2011-02-23 12   23.0   112.7     974    2    65          
2011-02-23 18   23.4   111.7     974    2    65          
2011-02-23 18   23.4   111.7     974    2    65          
2011-02-23 18   23.4   111.7     974    2    65          
2011-02-24 00   23.8   110.7     974    2    65          
2011-02-24 00   23.8   110.7     974    2    65          
2011-02-24 06   24.3   109.6     974    2    65          
2011-02-24 06   24.3   109.6     974    2    65          
2011-02-24 12   24.8   108.5     974    2    65          
2011-02-24 12   24.8   108.5     974    2    65          
2011-02-24 12   24.8   108.5     974    2    65          
2011-02-24 18   25.4   107.5     978    2    60          
2011-02-24 18   25.4   107.5     978    2    60          
2011-02-25 00   26.2   106.6     982    2    55          
2011-02-25 00   26.2   106.6     982    2    55          
2011-02-25 06   26.9   106.0     982    2    55          
2011-02-25 06   26.9   106.0     982    2    55          
2011-02-25 12   27.8   105.5     985    1    50          
2011-02-25 12   27.8   105.5     985    1    50          
2011-02-25 18   28.6   104.9     989    1    45          
2011-02-26 00   29.4   104.4     996         35          
2011-02-26 06   30.3   104.2    1000         30          
2011-02-26 12   31.2   104.0    1000         30          
2011-02-26 18   31.5   103.9    1000         30          
Winds are 1-min average.

Tropical cyclone tracks developed by Michael Bath using data from the Joint Typhoon Warning Centre Best Tracks and Google Maps.


[Australian Severe Weather index] [Copyright Notice] [Email Contacts] [Search This Site] [Privacy Policy]
Document: tropical_cyclone_carlos.htm Updated: 28 June 2017